createdAt,value
2022-09-23T00:01:22.419Z,88.40
2022-09-23T00:03:50.445Z,88.33
2022-09-23T00:06:24.012Z,89.45
2022-09-23T00:08:52.451Z,89.87
2022-09-23T00:11:26.463Z,89.57
2022-09-23T00:13:58.735Z,90.48
2022-09-23T00:16:48.214Z,91.20
2022-09-23T00:19:16.290Z,91.22
2022-09-23T00:21:43.836Z,91.80
2022-09-23T00:24:11.366Z,91.58
2022-09-23T00:26:39.098Z,91.09
2022-09-23T00:29:06.844Z,91.70
2022-09-23T00:31:34.279Z,92.30
2022-09-23T00:34:02.462Z,92.90
2022-09-23T00:36:32.205Z,93.33
2022-09-23T00:39:00.060Z,93.68
2022-09-23T00:41:27.892Z,94.11
2022-09-23T00:43:59.283Z,94.26
2022-09-23T00:46:40.035Z,94.61
2022-09-23T00:49:29.326Z,94.88
2022-09-23T00:52:10.110Z,95.03
2022-09-23T00:54:38.433Z,95.11
2022-09-23T00:57:06.966Z,94.83
2022-09-23T00:59:34.562Z,94.75
2022-09-23T01:02:03.907Z,94.82
2022-09-23T01:04:32.083Z,95.18
2022-09-23T01:06:59.593Z,95.41
2022-09-23T01:09:27.562Z,95.68
2022-09-23T01:12:10.899Z,95.27
2022-09-23T01:14:57.363Z,95.71
2022-09-23T01:18:21.259Z,96.21
2022-09-23T01:21:29.860Z,96.99
2022-09-23T01:24:34.333Z,97.54
2022-09-23T01:27:13.103Z,97.66
2022-09-23T01:30:05.780Z,98.17
2022-09-23T01:32:47.409Z,98.69
2022-09-23T01:35:42.963Z,98.84
2022-09-23T01:38:34.855Z,99.45
2022-09-23T01:41:31.554Z,100.00
2022-09-23T01:44:29.275Z,100.00
2022-09-23T01:47:38.127Z,100.00
2022-09-23T01:50:47.025Z,100.00
2022-09-23T01:53:39.568Z,100.00
2022-09-23T01:56:35.572Z,100.00
2022-09-23T01:59:17.850Z,100.00
2022-09-23T02:02:15.358Z,100.00
2022-09-23T02:05:07.991Z,100.00
2022-09-23T02:08:14.952Z,99.96
2022-09-23T02:10:52.154Z,100.00
2022-09-23T02:13:37.022Z,99.26
2022-09-23T02:16:18.441Z,97.83
2022-09-23T02:19:15.574Z,98.24
2022-09-23T02:22:18.956Z,98.44
2022-09-23T02:24:48.454Z,98.23
2022-09-23T02:28:28.247Z,97.56
2022-09-23T02:31:25.776Z,96.39
2022-09-23T02:34:04.185Z,96.88
2022-09-23T02:37:04.927Z,97.14
2022-09-23T02:39:50.892Z,97.01
2022-09-23T02:42:32.603Z,96.80
2022-09-23T02:45:00.158Z,96.73
2022-09-23T02:47:33.812Z,96.98
2022-09-23T02:50:02.143Z,96.58
2022-09-23T02:52:29.956Z,96.59
2022-09-23T02:54:58.024Z,96.18
2022-09-23T02:57:25.621Z,96.44
2022-09-23T02:59:53.550Z,96.56
2022-09-23T03:03:00.917Z,96.51
2022-09-23T03:05:32.884Z,96.71
2022-09-23T03:08:30.086Z,96.69
2022-09-23T03:11:11.303Z,96.21
2022-09-23T03:13:56.085Z,96.65
2022-09-23T03:17:01.506Z,96.34
2022-09-23T03:19:51.866Z,96.66
2022-09-23T03:22:35.454Z,96.31
2022-09-23T03:25:10.923Z,95.59
2022-09-23T03:27:42.465Z,95.84
2022-09-23T03:30:11.714Z,95.80
2022-09-23T03:32:44.625Z,95.93
2022-09-23T03:35:13.926Z,95.93
2022-09-23T03:37:53.466Z,96.27
2022-09-23T03:40:22.541Z,96.61
2022-09-23T03:42:51.274Z,96.29
2022-09-23T03:45:27.258Z,96.05
2022-09-23T03:47:55.099Z,96.13
2022-09-23T03:50:22.770Z,95.85
2022-09-23T03:52:50.627Z,96.08
2022-09-23T03:55:20.414Z,96.10
2022-09-23T03:57:48.697Z,96.52
2022-09-23T04:00:16.677Z,96.61
2022-09-23T04:02:44.878Z,96.58
2022-09-23T04:05:15.054Z,96.83
2022-09-23T04:07:42.730Z,96.59
2022-09-23T04:10:10.930Z,96.61
2022-09-23T04:12:38.840Z,96.32
2022-09-23T04:15:07.402Z,96.25
2022-09-23T04:17:35.259Z,96.48
2022-09-23T04:20:03.730Z,96.44
2022-09-23T04:22:33.499Z,95.72
2022-09-23T04:25:01.886Z,96.72
2022-09-23T04:27:31.294Z,96.48
2022-09-23T04:30:02.329Z,97.06
2022-09-23T04:32:30.092Z,97.25
2022-09-23T04:34:57.587Z,97.14
2022-09-23T04:37:25.438Z,97.00
2022-09-23T04:39:53.457Z,96.81
2022-09-23T04:42:20.980Z,96.40
2022-09-23T04:44:48.806Z,96.04
2022-09-23T04:47:16.394Z,96.26
2022-09-23T04:49:43.894Z,96.56
2022-09-23T04:52:12.101Z,96.47
2022-09-23T04:54:41.644Z,96.90
2022-09-23T04:57:11.183Z,96.81
2022-09-23T04:59:39.082Z,97.53
2022-09-23T05:02:06.591Z,97.41
2022-09-23T05:04:34.241Z,97.24
2022-09-23T05:07:03.416Z,97.11
2022-09-23T05:09:31.195Z,97.06
2022-09-23T05:11:58.899Z,96.78
2022-09-23T05:14:26.848Z,97.00
2022-09-23T05:16:54.394Z,97.32
2022-09-23T05:19:22.278Z,96.86
2022-09-23T05:21:50.018Z,97.09
2022-09-23T05:24:17.818Z,96.94
2022-09-23T05:26:45.569Z,96.79
2022-09-23T05:29:13.404Z,96.52
2022-09-23T05:31:41.256Z,96.15
2022-09-23T05:34:09.014Z,95.22
2022-09-23T05:36:38.919Z,95.37
2022-09-23T05:39:08.562Z,95.64
2022-09-23T05:41:36.791Z,95.40
2022-09-23T05:44:05.043Z,95.97
2022-09-23T05:46:33.683Z,96.72
2022-09-23T05:49:03.552Z,96.55
2022-09-23T05:51:33.917Z,96.68
2022-09-23T05:54:04.193Z,97.31
2022-09-23T05:56:33.808Z,97.76
2022-09-23T05:59:03.534Z,97.29
2022-09-23T06:01:35.364Z,97.28
2022-09-23T06:04:06.145Z,97.24
2022-09-23T06:06:38.145Z,97.03
2022-09-23T06:09:10.001Z,97.63
2022-09-23T06:11:37.728Z,97.60
2022-09-23T06:14:05.457Z,97.77
2022-09-23T06:16:35.790Z,97.39
2022-09-23T06:19:07.117Z,97.06
2022-09-23T06:21:38.549Z,97.37
2022-09-23T06:24:10.015Z,97.89
2022-09-23T06:26:38.802Z,97.93
2022-09-23T06:29:11.956Z,97.30
2022-09-23T06:31:43.724Z,97.67
2022-09-23T06:34:14.596Z,97.65
2022-09-23T06:36:46.195Z,96.54
2022-09-23T06:39:15.520Z,95.80
2022-09-23T06:41:45.227Z,96.16
2022-09-23T06:44:15.212Z,95.85
2022-09-23T06:46:43.354Z,95.12
2022-09-23T06:49:12.221Z,96.88
2022-09-23T06:51:40.269Z,97.21
2022-09-23T06:54:08.357Z,97.99
2022-09-23T06:56:39.069Z,98.48
2022-09-23T06:59:10.666Z,98.01
2022-09-23T07:01:39.074Z,95.17
2022-09-23T07:04:07.832Z,96.19
2022-09-23T07:06:37.196Z,95.07
2022-09-23T07:09:07.365Z,95.88
2022-09-23T07:11:35.178Z,92.45
2022-09-23T07:14:03.365Z,90.67
2022-09-23T07:16:32.904Z,93.45
2022-09-23T07:19:00.435Z,93.54
2022-09-23T07:21:28.007Z,92.80
2022-09-23T07:23:58.257Z,92.59
2022-09-23T07:26:26.658Z,92.33
2022-09-23T07:28:56.704Z,92.21
2022-09-23T07:31:37.241Z,92.44
2022-09-23T07:34:10.347Z,91.63
2022-09-23T07:36:41.080Z,90.62
2022-09-23T07:39:12.408Z,90.55
2022-09-23T07:41:44.738Z,91.11
2022-09-23T07:44:12.560Z,89.98
2022-09-23T07:46:40.351Z,88.32
2022-09-23T07:49:08.854Z,88.68
2022-09-23T07:51:39.108Z,88.61
2022-09-23T07:54:11.214Z,89.15
2022-09-23T07:56:40.141Z,89.47
2022-09-23T07:59:11.581Z,88.04
2022-09-23T08:01:44.270Z,87.53
2022-09-23T08:04:22.153Z,86.76
2022-09-23T08:06:54.217Z,86.97
2022-09-23T08:09:27.070Z,86.71
2022-09-23T08:11:55.300Z,86.78
2022-09-23T08:14:22.857Z,86.24
2022-09-23T08:16:51.904Z,85.43
2022-09-23T08:19:20.234Z,85.28
2022-09-23T08:21:47.962Z,84.29
2022-09-23T08:24:19.162Z,83.13
2022-09-23T08:26:48.199Z,83.71
2022-09-23T08:29:18.996Z,82.07
2022-09-23T08:31:47.193Z,83.25
2022-09-23T08:34:15.627Z,83.46
2022-09-23T08:36:43.611Z,83.85
2022-09-23T08:39:15.880Z,84.34
2022-09-23T08:42:08.260Z,84.37
2022-09-23T08:44:52.960Z,82.91
2022-09-23T08:47:47.180Z,82.64
2022-09-23T08:50:31.976Z,81.55
2022-09-23T08:53:14.166Z,81.89
2022-09-23T08:55:50.966Z,81.50
2022-09-23T08:58:40.591Z,80.79
2022-09-23T09:01:19.444Z,80.13
2022-09-23T09:03:57.016Z,79.64
2022-09-23T09:06:53.669Z,80.68
2022-09-23T09:09:33.895Z,80.78
2022-09-23T09:12:20.447Z,79.26
2022-09-23T09:15:27.411Z,79.88
2022-09-23T09:18:10.242Z,78.14
2022-09-23T09:20:57.406Z,78.37
2022-09-23T09:23:50.511Z,79.34
2022-09-23T09:26:35.333Z,77.79
2022-09-23T09:29:33.752Z,76.89
2022-09-23T09:32:22.968Z,78.67
2022-09-23T09:34:58.585Z,76.07
2022-09-23T09:37:37.565Z,74.15
2022-09-23T09:40:06.586Z,74.24
2022-09-23T09:42:40.438Z,71.47
2022-09-23T09:45:24.255Z,73.09
2022-09-23T09:48:20.843Z,72.91
2022-09-23T09:50:53.928Z,72.23
2022-09-23T09:53:35.908Z,72.68
2022-09-23T09:56:08.815Z,73.49
2022-09-23T09:58:48.616Z,69.90
2022-09-23T10:01:32.765Z,69.31
2022-09-23T10:04:33.969Z,70.71
2022-09-23T10:07:16.716Z,70.29
2022-09-23T10:09:51.397Z,68.21
2022-09-23T10:12:21.515Z,67.96
2022-09-23T10:14:52.573Z,67.54
2022-09-23T10:17:31.651Z,67.54
2022-09-23T10:20:09.151Z,65.70
2022-09-23T10:22:42.891Z,62.56
2022-09-23T10:25:21.211Z,61.74
2022-09-23T10:27:48.748Z,63.23
2022-09-23T10:30:25.909Z,64.29
2022-09-23T10:32:56.931Z,62.99
2022-09-23T10:35:26.654Z,62.16
2022-09-23T10:37:57.732Z,59.94
2022-09-23T10:41:02.295Z,60.33
2022-09-23T10:44:16.692Z,59.57
2022-09-23T10:47:14.593Z,59.23
2022-09-23T10:50:14.579Z,57.89
2022-09-23T10:53:05.092Z,59.78
2022-09-23T10:56:05.161Z,59.86
2022-09-23T10:59:14.755Z,58.56
2022-09-23T11:02:00.762Z,59.85
2022-09-23T11:05:03.533Z,58.00
2022-09-23T11:08:37.338Z,56.34
2022-09-23T11:11:40.701Z,57.51
2022-09-23T11:14:19.647Z,57.33
2022-09-23T11:17:14.854Z,56.45
2022-09-23T11:19:56.027Z,57.96
2022-09-23T11:22:37.453Z,54.92
2022-09-23T11:25:30.335Z,53.13
2022-09-23T11:28:23.574Z,53.07
2022-09-23T11:31:19.553Z,53.69
2022-09-23T11:34:08.219Z,53.48
2022-09-23T11:36:50.707Z,51.33
2022-09-23T11:39:42.743Z,51.41
2022-09-23T11:42:27.204Z,50.61
2022-09-23T11:45:08.320Z,50.10
2022-09-23T11:47:48.902Z,49.69
2022-09-23T11:50:32.842Z,50.80
2022-09-23T11:53:19.438Z,52.15
2022-09-23T11:56:03.913Z,49.88
2022-09-23T11:59:03.016Z,49.50
2022-09-23T12:01:45.693Z,49.42
2022-09-23T12:04:56.453Z,49.61
2022-09-23T12:07:48.818Z,47.92
2022-09-23T12:10:17.473Z,48.34
2022-09-23T12:12:49.433Z,48.26
2022-09-23T12:15:52.658Z,49.29
2022-09-23T12:18:51.144Z,49.66
2022-09-23T12:21:50.945Z,47.09
2022-09-23T12:24:41.181Z,47.69
2022-09-23T12:27:36.872Z,48.17
2022-09-23T12:30:18.497Z,50.06
2022-09-23T12:32:49.499Z,50.65
2022-09-23T12:35:41.302Z,49.51
2022-09-23T12:38:49.640Z,50.06
2022-09-23T12:41:37.724Z,49.97
2022-09-23T12:44:11.158Z,46.73
2022-09-23T12:46:46.108Z,46.07
2022-09-23T12:49:28.952Z,45.48
2022-09-23T12:52:18.622Z,44.54
2022-09-23T12:54:50.499Z,44.19
2022-09-23T12:57:36.756Z,45.06
2022-09-23T13:00:12.925Z,43.30
2022-09-23T13:03:22.312Z,42.95
2022-09-23T13:06:19.322Z,42.61
2022-09-23T13:08:49.506Z,41.86
2022-09-23T13:11:27.792Z,41.99
2022-09-23T13:14:00.695Z,41.26
2022-09-23T13:16:37.105Z,42.74
2022-09-23T13:19:27.790Z,43.47
2022-09-23T13:22:07.712Z,43.80
2022-09-23T13:24:43.058Z,43.08
2022-09-23T13:27:23.070Z,43.92
2022-09-23T13:30:27.101Z,45.17
2022-09-23T13:33:14.323Z,46.56
2022-09-23T13:35:53.157Z,46.95
2022-09-23T13:38:28.201Z,46.59
2022-09-23T13:41:18.115Z,46.45
2022-09-23T13:43:59.276Z,47.06
2022-09-23T13:46:35.662Z,45.53
2022-09-23T13:49:03.786Z,45.48
2022-09-23T13:51:35.177Z,46.15
2022-09-23T13:54:05.217Z,45.90
2022-09-23T13:56:35.391Z,45.47
2022-09-23T13:59:25.918Z,46.12
2022-09-23T14:02:07.068Z,46.00
2022-09-23T14:04:34.745Z,47.39
2022-09-23T14:07:04.093Z,47.06
2022-09-23T14:09:34.440Z,46.55
2022-09-23T14:12:04.478Z,45.30
2022-09-23T14:14:37.256Z,43.97
2022-09-23T14:17:07.575Z,42.63
2022-09-23T14:19:37.105Z,40.92
2022-09-23T14:22:09.251Z,37.82
2022-09-23T14:24:41.127Z,37.02
2022-09-23T14:27:22.534Z,37.32
2022-09-23T14:29:50.980Z,36.23
2022-09-23T14:32:24.274Z,33.78
2022-09-23T14:35:04.584Z,32.56
2022-09-23T14:37:55.515Z,32.01
2022-09-23T14:40:50.780Z,32.13
2022-09-23T14:43:26.095Z,32.90
2022-09-23T14:45:59.014Z,33.11
2022-09-23T14:48:34.616Z,33.48
2022-09-23T14:51:08.669Z,33.96
2022-09-23T14:53:48.751Z,32.30
2022-09-23T14:56:22.598Z,31.74
2022-09-23T14:58:57.190Z,32.89
2022-09-23T15:01:31.236Z,33.41
2022-09-23T15:04:15.282Z,33.19
2022-09-23T15:07:02.825Z,32.69
2022-09-23T15:09:40.869Z,33.14
2022-09-23T15:12:21.863Z,32.05
2022-09-23T15:14:55.263Z,32.48
2022-09-23T15:17:38.423Z,33.95
2022-09-23T15:20:28.079Z,35.29
2022-09-23T15:22:56.566Z,33.57
2022-09-23T15:25:40.128Z,36.92
2022-09-23T15:28:10.876Z,39.71
2022-09-23T15:30:39.539Z,39.38
2022-09-23T15:33:09.537Z,37.85
2022-09-23T15:35:40.804Z,41.13
2022-09-23T15:38:09.816Z,41.43
2022-09-23T15:40:39.547Z,43.05
2022-09-23T15:43:21.169Z,43.20
2022-09-23T15:45:53.463Z,45.31
2022-09-23T15:48:43.697Z,43.92
2022-09-23T15:51:15.583Z,43.83
2022-09-23T15:53:43.366Z,43.36
2022-09-23T15:56:10.820Z,42.46
2022-09-23T15:58:38.729Z,41.63
2022-09-23T16:01:06.559Z,41.92
2022-09-23T16:03:34.232Z,40.77
2022-09-23T16:06:03.268Z,40.70
2022-09-23T16:08:33.063Z,41.22
2022-09-23T16:11:01.298Z,42.07
2022-09-23T16:13:29.155Z,44.38
2022-09-23T16:15:56.709Z,47.81
2022-09-23T16:18:24.464Z,51.36
2022-09-23T16:20:52.293Z,53.86
2022-09-23T16:23:35.882Z,56.03
2022-09-23T16:26:29.625Z,57.29
2022-09-23T16:28:58.979Z,59.10
2022-09-23T16:31:31.430Z,59.64
2022-09-23T16:34:02.553Z,61.62
2022-09-23T16:36:41.182Z,61.42
2022-09-23T16:39:12.789Z,63.50
2022-09-23T16:41:42.881Z,61.19
2022-09-23T16:44:12.506Z,63.78
2022-09-23T16:46:43.007Z,63.38
2022-09-23T16:49:14.094Z,65.44
2022-09-23T16:51:42.328Z,66.11
2022-09-23T16:54:13.572Z,63.79
2022-09-23T16:56:44.460Z,58.77
2022-09-23T16:59:16.757Z,59.14
2022-09-23T17:02:03.977Z,60.08
2022-09-23T17:04:31.868Z,63.36
2022-09-23T17:06:59.450Z,63.88
2022-09-23T17:09:30.225Z,60.96
2022-09-23T17:12:23.328Z,58.55
2022-09-23T17:14:52.518Z,57.96
2022-09-23T17:17:20.162Z,58.13
2022-09-23T17:19:47.722Z,62.96
2022-09-23T17:22:15.202Z,62.67
2022-09-23T17:24:43.196Z,61.78
2022-09-23T17:27:11.002Z,64.01
2022-09-23T17:29:38.567Z,64.73
2022-09-23T17:32:06.364Z,64.88
2022-09-23T17:34:34.958Z,65.48
2022-09-23T17:37:02.647Z,65.83
2022-09-23T17:39:31.736Z,65.91
2022-09-23T17:41:59.310Z,65.21
2022-09-23T17:44:27.022Z,64.11
2022-09-23T17:46:56.943Z,65.93
2022-09-23T17:49:24.701Z,66.97
2022-09-23T17:51:52.312Z,68.06
2022-09-23T17:54:20.359Z,67.70
2022-09-23T17:56:47.854Z,70.59
2022-09-23T17:59:15.494Z,70.01
2022-09-23T18:01:43.327Z,67.80
2022-09-23T18:04:12.761Z,64.82
2022-09-23T18:06:40.401Z,66.81
2022-09-23T18:09:09.401Z,67.44
2022-09-23T18:11:43.585Z,68.50
2022-09-23T18:14:26.934Z,68.52
2022-09-23T18:16:55.044Z,67.77
2022-09-23T18:19:24.717Z,67.38
2022-09-23T18:21:56.404Z,68.16
2022-09-23T18:24:33.353Z,68.45
2022-09-23T18:27:01.993Z,68.46
2022-09-23T18:29:29.867Z,64.87
2022-09-23T18:31:59.306Z,66.50
2022-09-23T18:34:27.426Z,67.75
2022-09-23T18:36:56.245Z,67.25
2022-09-23T18:39:23.823Z,68.67
2022-09-23T18:41:51.324Z,69.30
2022-09-23T18:44:20.155Z,70.03
2022-09-23T18:46:47.736Z,70.58
2022-09-23T18:49:34.148Z,70.67
2022-09-23T18:52:02.515Z,70.97
2022-09-23T18:54:30.443Z,71.69
2022-09-23T18:56:59.322Z,71.49
2022-09-23T18:59:33.568Z,71.65
2022-09-23T19:02:01.527Z,72.67
2022-09-23T19:04:29.635Z,73.74
2022-09-23T19:06:58.010Z,74.61
2022-09-23T19:09:26.794Z,74.25
2022-09-23T19:11:54.663Z,74.91
2022-09-23T19:14:22.391Z,75.15
2022-09-23T19:16:51.003Z,75.20
2022-09-23T19:19:18.922Z,74.94
2022-09-23T19:21:49.397Z,74.73
2022-09-23T19:24:20.121Z,74.92
2022-09-23T19:26:50.359Z,73.96
2022-09-23T19:29:19.860Z,74.44
2022-09-23T19:31:48.503Z,74.27
2022-09-23T19:34:19.755Z,74.26
2022-09-23T19:36:48.059Z,74.54
2022-09-23T19:39:28.340Z,74.30
2022-09-23T19:41:56.276Z,74.04
2022-09-23T19:44:25.424Z,73.78
2022-09-23T19:46:56.763Z,73.52
2022-09-23T19:49:26.203Z,72.84
2022-09-23T19:51:56.095Z,72.61
2022-09-23T19:54:26.723Z,72.81
2022-09-23T19:56:54.988Z,72.63
2022-09-23T19:59:22.524Z,72.58
2022-09-23T20:01:50.208Z,72.25
2022-09-23T20:04:18.124Z,72.15
2022-09-23T20:06:46.401Z,72.48
2022-09-23T20:09:14.443Z,72.76
2022-09-23T20:11:43.139Z,73.42
2022-09-23T20:14:11.951Z,72.99
2022-09-23T20:16:40.600Z,73.78
2022-09-23T20:19:09.932Z,73.84
2022-09-23T20:21:37.675Z,73.75
2022-09-23T20:24:06.994Z,73.25
2022-09-23T20:26:53.905Z,73.12
2022-09-23T20:29:21.852Z,73.32
2022-09-23T20:31:49.694Z,73.55
2022-09-23T20:34:18.793Z,73.44
2022-09-23T20:36:46.338Z,74.10
2022-09-23T20:39:14.748Z,73.74
2022-09-23T20:41:42.577Z,73.67
2022-09-23T20:44:12.577Z,74.38
2022-09-23T20:46:48.648Z,74.79
2022-09-23T20:49:23.405Z,74.18
2022-09-23T20:51:54.385Z,73.57
2022-09-23T20:54:29.805Z,73.93
2022-09-23T21:00:21.913Z,72.54
2022-09-23T21:02:54.897Z,72.22
2022-09-23T21:05:52.154Z,72.22
2022-09-23T21:08:39.909Z,72.29
2022-09-23T21:11:29.172Z,72.02
2022-09-23T21:14:07.543Z,72.91
2022-09-23T21:17:04.127Z,73.44
2022-09-23T21:19:41.661Z,72.93
2022-09-23T21:22:16.966Z,73.61
2022-09-23T21:25:26.238Z,73.88
2022-09-23T21:28:21.019Z,74.32
2022-09-23T21:31:33.915Z,74.25
2022-09-23T21:34:16.744Z,74.90
2022-09-23T21:36:47.966Z,74.70
2022-09-23T21:39:17.214Z,74.44
2022-09-23T21:41:54.678Z,74.08
2022-09-23T21:44:32.993Z,74.34
2022-09-23T21:47:05.858Z,73.14
2022-09-23T21:50:29.745Z,73.37
2022-09-23T21:53:02.838Z,73.68
2022-09-23T21:56:28.862Z,73.64
2022-09-23T21:59:01.410Z,73.61
2022-09-23T22:01:39.469Z,73.46
2022-09-23T22:04:19.421Z,74.05
2022-09-23T22:06:49.467Z,74.20
2022-09-23T22:09:25.373Z,73.95
2022-09-23T22:12:07.882Z,73.56
2022-09-23T22:14:36.428Z,72.66
2022-09-23T22:17:06.487Z,72.93
2022-09-23T22:19:40.209Z,73.52
2022-09-23T22:22:13.244Z,71.39
2022-09-23T22:24:46.450Z,72.18
2022-09-23T22:27:19.172Z,71.61
2022-09-23T22:30:05.528Z,70.98
2022-09-23T22:32:44.127Z,70.88
2022-09-23T22:35:17.934Z,71.46
2022-09-23T22:37:47.412Z,70.65
2022-09-23T22:40:16.015Z,66.34
2022-09-23T22:42:44.382Z,63.03
2022-09-23T22:45:13.489Z,61.93
2022-09-23T22:47:45.513Z,60.22
2022-09-23T22:50:15.359Z,60.45
2022-09-23T22:52:43.365Z,59.21
2022-09-23T22:55:12.125Z,57.95
2022-09-23T22:57:39.917Z,57.98
2022-09-23T23:00:09.409Z,57.95
2022-09-23T23:02:37.006Z,58.54
2022-09-23T23:05:05.244Z,58.93
2022-09-23T23:07:36.236Z,58.98
2022-09-23T23:10:04.752Z,59.71
2022-09-23T23:12:33.624Z,60.79
2022-09-23T23:15:01.089Z,62.27
2022-09-23T23:17:29.879Z,63.22
2022-09-23T23:19:58.036Z,63.28
2022-09-23T23:22:28.547Z,64.12
2022-09-23T23:24:56.172Z,65.20
2022-09-23T23:27:23.950Z,65.57
2022-09-23T23:29:51.512Z,62.83
2022-09-23T23:32:18.971Z,61.00
2022-09-23T23:34:46.972Z,60.35
2022-09-23T23:37:17.639Z,58.92
2022-09-23T23:39:48.005Z,58.33
2022-09-23T23:42:15.619Z,57.37
2022-09-23T23:44:43.238Z,57.16
2022-09-23T23:47:11.129Z,56.68
2022-09-23T23:49:38.871Z,56.33
2022-09-23T23:52:06.437Z,56.39
2022-09-23T23:54:34.253Z,56.17
2022-09-23T23:57:01.762Z,56.08
2022-09-23T23:59:29.235Z,56.16
